首页
METAR-TAF:

METAR-TAF

机场 :

阿姆斯特丹, 荷兰

阿姆斯特丹史基浦機場

纬度: 52-18N, 经度: 004-46E, 海拔: -4米

当前天气观测

该预报发布于26分钟前的21:55 UTC
风速12节,风向西南
温度 9°C
湿度 87%
气压 1011 hPa
能见度10公里或以上
少量云层高于1200英尺
少量云层高于1800英尺, 积雨云.
散云层高于4500英尺
附近有阵雨

METAR: EHAM 252155Z 23012KT 9999 VCSH FEW012 FEW018CB SCT045 09/07 Q1011 TEMPO 6000 SHRA

时间: 00:21 (22:21 UTC)

预报

该预报发布于5小时和28分钟前的16:53 UTC
预报有效从25日的 18点(UTC)到 26日的 24点(UTC)
风速15节,风向西转西南
能见度10公里或以上
少量云层高于3000英尺
短暂存在
从 25日的 18点(UTC)到 26日的 04点(UTC)
风速15节,风向西转西南,有时为25节阵风
能見度: 6000
散云层高于1800英尺, 积雨云.
多云层高于3000英尺
阵雨
成为
从 26日的 05点(UTC)到 26日的 08点(UTC)
风速17节,风向西,有时为27节阵风
成为
从 26日的 16点(UTC)到 26日的 19点(UTC)
风速12节,风向西南

TAF: EHAM 251653Z 2518/2624 24015KT 9999 FEW030 TEMPO 2518/2604 25015G25KT 6000 SHRA SCT018CB BKN030 BECMG 2605/2608 26017G27KT BECMG 2616/2619 23012KT

超过4000个机场的气象观测和天气预报(METAR&TAF报告)。

可查询的气象台以黄色和红色小点在地图上表示。

将鼠标移到小点上方,可查看气象台名称。

然后点击查看天气观测和预报。

如需切换地图:点击带黑十字的绿色按钮放大地图;点击带横线的绿色按钮缩小地图;或者点击绿色箭头查看邻近地区的地图。


METAR-TAF: